Back to Top

Language: 

My Weather Underground Personal Weather Station Historical Data with Graphs...

Delerius Weather Station Historical Data
Daily Summary for December 7, 2017 Units:  Both    English   Metric
« Previous Day
Next Day »
Daily Weekly Monthly Yearly Custom
  High: Low: Average:
Temperature: 54.5 °F /  12.5 °C 37.2 °F /  2.9 °C 46.6 °F /  8.1 °C
Dew Point: 52.0 °F /  11.1 °C 30.1 °F /  -1.1 °C 41.5 °F /  5.3 °C
Humidity: 92 % 72 % 83 %
Wind Speed: 22.0 mph /  35.4 km/h - 14.2 mph /  22.9 km/h
Wind Gust: 34.0 mph /  54.7 km/h - -
Wind:- - WSW
Pressure: 29.76 in /  1007.7 hPa 29.50 in /  998.9 hPa -
Precipitation: 0.10 in /  2.54 mm    
Historical Graphs
 
 
Tabular Data for December 7, 2017
Time Temperature Dew Point Pressure Wind Wind Speed Wind Gust Humidity Rainfall Rate (Hourly) solar Conditions
00:00 52.0 °F /  11.1 °C 47.3 °F /  8.5 °C 29.76 in /  1007.7 hPa SSW 16.0 mph /  25.7 km/h 23.0 mph /  37 km/h 84 % 0.00 in /  0 mm 0 W/m2
00:04 52.0 °F /  11.1 °C 47.3 °F /  8.5 °C 29.76 in /  1007.7 hPa SSW 17.0 mph /  27.4 km/h 30.0 mph /  48.3 km/h 84 % 0.00 in /  0 mm 0 W/m2
00:09 52.2 °F /  11.2 °C 47.5 °F /  8.6 °C 29.76 in /  1007.7 hPa SSW 11.0 mph /  17.7 km/h 18.0 mph /  29 km/h 84 % 0.00 in /  0 mm 0 W/m2
00:14 52.2 °F /  11.2 °C 47.5 °F /  8.6 °C 29.76 in /  1007.7 hPa SSW 19.0 mph /  30.6 km/h 27.0 mph /  43.5 km/h 84 % 0.00 in /  0 mm 0 W/m2
00:19 52.2 °F /  11.2 °C 47.5 °F /  8.6 °C 29.75 in /  1007.3 hPa SSW 16.0 mph /  25.7 km/h 29.0 mph /  46.7 km/h 84 % 0.00 in /  0 mm 0 W/m2
00:24 52.2 °F /  11.2 °C 47.8 °F /  8.8 °C 29.75 in /  1007.3 hPa SSW 17.0 mph /  27.4 km/h 23.0 mph /  37 km/h 85 % 0.00 in /  0 mm 0 W/m2
00:29 52.2 °F /  11.2 °C 47.8 °F /  8.8 °C 29.74 in /  1007 hPa SSW 14.0 mph /  22.5 km/h 24.0 mph /  38.6 km/h 85 % 0.00 in /  0 mm 0 W/m2
00:34 52.2 °F /  11.2 °C 47.8 °F /  8.8 °C 29.74 in /  1007 hPa SSW 12.0 mph /  19.3 km/h 16.0 mph /  25.7 km/h 85 % 0.00 in /  0 mm 0 W/m2
00:39 52.2 °F /  11.2 °C 47.8 °F /  8.8 °C 29.73 in /  1006.7 hPa SSW 13.0 mph /  20.9 km/h 22.0 mph /  35.4 km/h 85 % 0.00 in /  0 mm 0 W/m2
00:44 52.2 °F /  11.2 °C 47.8 °F /  8.8 °C 29.73 in /  1006.7 hPa SSW 14.0 mph /  22.5 km/h 26.0 mph /  41.8 km/h 85 % 0.00 in /  0 mm 0 W/m2
00:46 52.2 °F /  11.2 °C 47.8 °F /  8.8 °C 29.73 in /  1006.7 hPa South 17.0 mph /  27.4 km/h 24.0 mph /  38.6 km/h 85 % 0.00 in /  0 mm 0 W/m2
00:51 52.2 °F /  11.2 °C 47.8 °F /  8.8 °C 29.73 in /  1006.7 hPa SSW 13.0 mph /  20.9 km/h 22.0 mph /  35.4 km/h 85 % 0.00 in /  0 mm 0 W/m2
00:56 52.2 °F /  11.2 °C 47.8 °F /  8.8 °C 29.72 in /  1006.3 hPa South 12.0 mph /  19.3 km/h 21.0 mph /  33.8 km/h 85 % 0.00 in /  0 mm 0 W/m2
01:01 52.2 °F /  11.2 °C 47.8 °F /  8.8 °C 29.72 in /  1006.3 hPa SSW 16.0 mph /  25.7 km/h 31.0 mph /  49.9 km/h 85 % 0.00 in /  0 mm 0 W/m2
01:06 52.2 °F /  11.2 °C 48.1 °F /  8.9 °C 29.71 in /  1006 hPa South 12.0 mph /  19.3 km/h 22.0 mph /  35.4 km/h 86 % 0.00 in /  0 mm 0 W/m2
01:16 52.2 °F /  11.2 °C 48.1 °F /  8.9 °C 29.71 in /  1006 hPa SSW 14.0 mph /  22.5 km/h 20.0 mph /  32.2 km/h 86 % 0.00 in /  0 mm 0 W/m2
01:21 52.2 °F /  11.2 °C 48.1 °F /  8.9 °C 29.71 in /  1006 hPa SSW 11.0 mph /  17.7 km/h 16.0 mph /  25.7 km/h 86 % 0.00 in /  0 mm 0 W/m2
01:26 52.2 °F /  11.2 °C 48.1 °F /  8.9 °C 29.70 in /  1005.6 hPa SSW 13.0 mph /  20.9 km/h 23.0 mph /  37 km/h 86 % 0.00 in /  0 mm 0 W/m2
01:31 52.2 °F /  11.2 °C 48.1 °F /  8.9 °C 29.69 in /  1005.3 hPa SSE 14.0 mph /  22.5 km/h 22.0 mph /  35.4 km/h 86 % 0.00 in /  0 mm 0 W/m2
01:36 52.2 °F /  11.2 °C 48.4 °F /  9.1 °C 29.69 in /  1005.3 hPa SSE 15.0 mph /  24.1 km/h 24.0 mph /  38.6 km/h 87 % 0.00 in /  0 mm 0 W/m2
01:41 52.2 °F /  11.2 °C 48.4 °F /  9.1 °C 29.68 in /  1005 hPa South 12.0 mph /  19.3 km/h 20.0 mph /  32.2 km/h 87 % 0.00 in /  0 mm 0 W/m2
01:46 52.2 °F /  11.2 °C 48.4 °F /  9.1 °C 29.68 in /  1005 hPa SSE 14.0 mph /  22.5 km/h 25.0 mph /  40.2 km/h 87 % 0.00 in /  0 mm 0 W/m2
01:51 52.2 °F /  11.2 °C 48.4 °F /  9.1 °C 29.68 in /  1005 hPa SSE 13.0 mph /  20.9 km/h 22.0 mph /  35.4 km/h 87 % 0.00 in /  0 mm 0 W/m2
01:56 52.2 °F /  11.2 °C 48.4 °F /  9.1 °C 29.68 in /  1005 hPa South 11.0 mph /  17.7 km/h 18.0 mph /  29 km/h 87 % 0.00 in /  0 mm 0 W/m2
02:01 52.3 °F /  11.3 °C 48.6 °F /  9.2 °C 29.67 in /  1004.6 hPa South 13.0 mph /  20.9 km/h 24.0 mph /  38.6 km/h 87 % 0.00 in /  0 mm 0 W/m2
02:06 52.3 °F /  11.3 °C 48.6 °F /  9.2 °C 29.67 in /  1004.6 hPa South 12.0 mph /  19.3 km/h 20.0 mph /  32.2 km/h 87 % 0.00 in /  0 mm 0 W/m2
02:11 52.3 °F /  11.3 °C 48.6 °F /  9.2 °C 29.66 in /  1004.3 hPa SSW 12.0 mph /  19.3 km/h 23.0 mph /  37 km/h 87 % 0.00 in /  0 mm 0 W/m2
02:16 52.5 °F /  11.4 °C 48.8 °F /  9.3 °C 29.67 in /  1004.6 hPa SSW 17.0 mph /  27.4 km/h 34.0 mph /  54.7 km/h 87 % 0.00 in /  0 mm 0 W/m2
02:21 52.5 °F /  11.4 °C 48.8 °F /  9.3 °C 29.67 in /  1004.6 hPa South 11.0 mph /  17.7 km/h 20.0 mph /  32.2 km/h 87 % 0.00 in /  0 mm 0 W/m2
02:26 52.7 °F /  11.5 °C 48.9 °F /  9.4 °C 29.66 in /  1004.3 hPa SSW 13.0 mph /  20.9 km/h 20.0 mph /  32.2 km/h 87 % 0.00 in /  0 mm 0 W/m2
02:31 52.7 °F /  11.5 °C 48.9 °F /  9.4 °C 29.65 in /  1003.9 hPa SSW 9.0 mph /  14.5 km/h 16.0 mph /  25.7 km/h 87 % 0.00 in /  0 mm 0 W/m2
02:36 52.9 °F /  11.6 °C 49.1 °F /  9.5 °C 29.65 in /  1003.9 hPa South 15.0 mph /  24.1 km/h 26.0 mph /  41.8 km/h 87 % 0.00 in /  0 mm 0 W/m2
02:41 53.1 °F /  11.7 °C 49.3 °F /  9.6 °C 29.64 in /  1003.6 hPa SSW 12.0 mph /  19.3 km/h 23.0 mph /  37 km/h 87 % 0.00 in /  0 mm 0 W/m2
02:46 53.2 °F /  11.8 °C 49.5 °F /  9.7 °C 29.64 in /  1003.6 hPa SSW 16.0 mph /  25.7 km/h 23.0 mph /  37 km/h 87 % 0.00 in /  0 mm 0 W/m2
02:51 53.2 °F /  11.8 °C 49.5 °F /  9.7 °C 29.64 in /  1003.6 hPa SSW 13.0 mph /  20.9 km/h 27.0 mph /  43.5 km/h 87 % 0.00 in /  0 mm 0 W/m2
02:56 53.4 °F /  11.9 °C 49.6 °F /  9.8 °C 29.63 in /  1003.3 hPa SW 17.0 mph /  27.4 km/h 30.0 mph /  48.3 km/h 87 % 0.00 in /  0 mm 0 W/m2
03:01 53.4 °F /  11.9 °C 49.6 °F /  9.8 °C 29.62 in /  1002.9 hPa SW 13.0 mph /  20.9 km/h 21.0 mph /  33.8 km/h 87 % 0.00 in /  0 mm 0 W/m2
03:06 53.4 °F /  11.9 °C 49.6 °F /  9.8 °C 29.62 in /  1002.9 hPa SSW 16.0 mph /  25.7 km/h 25.0 mph /  40.2 km/h 87 % 0.00 in /  0 mm 0 W/m2
03:12 53.4 °F /  11.9 °C 49.6 °F /  9.8 °C 29.62 in /  1002.9 hPa SSW 16.0 mph /  25.7 km/h 23.0 mph /  37 km/h 87 % 0.00 in /  0 mm 0 W/m2
03:17 53.4 °F /  11.9 °C 50.0 °F /  10 °C 29.62 in /  1002.9 hPa SSW 15.0 mph /  24.1 km/h 26.0 mph /  41.8 km/h 88 % 0.00 in /  0 mm 0 W/m2
03:22 53.4 °F /  11.9 °C 50.0 °F /  10 °C 29.61 in /  1002.6 hPa SSW 15.0 mph /  24.1 km/h 26.0 mph /  41.8 km/h 88 % 0.00 in /  0 mm 0 W/m2
03:23 53.4 °F /  11.9 °C 49.6 °F /  9.8 °C 29.61 in /  1002.6 hPa SSW 13.0 mph /  20.9 km/h 23.0 mph /  37 km/h 87 % 0.00 in /  0 mm 0 W/m2
03:24 53.4 °F /  11.9 °C 49.6 °F /  9.8 °C 29.61 in /  1002.6 hPa SSW 14.0 mph /  22.5 km/h 26.0 mph /  41.8 km/h 87 % 0.00 in /  0 mm 0 W/m2
03:29 53.4 °F /  11.9 °C 49.6 °F /  9.8 °C 29.60 in /  1002.3 hPa SSW 15.0 mph /  24.1 km/h 22.0 mph /  35.4 km/h 87 % 0.00 in /  0 mm 0 W/m2
03:34 53.6 °F /  12 °C 49.8 °F /  9.9 °C 29.60 in /  1002.3 hPa SSW 15.0 mph /  24.1 km/h 26.0 mph /  41.8 km/h 87 % 0.00 in /  0 mm 0 W/m2
03:39 53.8 °F /  12.1 °C 50.0 °F /  10 °C 29.60 in /  1002.3 hPa SSW 17.0 mph /  27.4 km/h 28.0 mph /  45.1 km/h 87 % 0.00 in /  0 mm 0 W/m2
03:49 53.8 °F /  12.1 °C 50.0 °F /  10 °C 29.59 in /  1001.9 hPa SSW 16.0 mph /  25.7 km/h 26.0 mph /  41.8 km/h 87 % 0.00 in /  0 mm 0 W/m2
03:54 53.8 °F /  12.1 °C 50.3 °F /  10.2 °C 29.60 in /  1002.3 hPa SW 19.0 mph /  30.6 km/h 31.0 mph /  49.9 km/h 88 % 0.00 in /  0 mm 0 W/m2
03:59 53.4 °F /  11.9 °C 50.3 °F /  10.2 °C 29.59 in /  1001.9 hPa SW 15.0 mph /  24.1 km/h 23.0 mph /  37 km/h 89 % 0.00 in /  0 mm 0 W/m2
04:04 53.2 °F /  11.8 °C 50.1 °F /  10.1 °C 29.59 in /  1001.9 hPa SW 18.0 mph /  29 km/h 26.0 mph /  41.8 km/h 89 % 0.00 in /  0 mm 0 W/m2
04:14 53.4 °F /  11.9 °C 50.3 °F /  10.2 °C 29.58 in /  1001.6 hPa SSW 13.0 mph /  20.9 km/h 20.0 mph /  32.2 km/h 89 % 0.00 in /  0 mm 0 W/m2
04:19 53.4 °F /  11.9 °C 50.3 °F /  10.2 °C 29.58 in /  1001.6 hPa SSW 14.0 mph /  22.5 km/h 22.0 mph /  35.4 km/h 89 % 0.00 in /  0 mm 0 W/m2
04:24 53.4 °F /  11.9 °C 50.3 °F /  10.2 °C 29.58 in /  1001.6 hPa SSW 13.0 mph /  20.9 km/h 20.0 mph /  32.2 km/h 89 % 0.00 in /  0 mm 0 W/m2
04:29 53.4 °F /  11.9 °C 50.3 °F /  10.2 °C 29.58 in /  1001.6 hPa SSW 18.0 mph /  29 km/h 29.0 mph /  46.7 km/h 89 % 0.00 in /  0 mm 0 W/m2
04:34 53.6 °F /  12 °C 50.4 °F /  10.2 °C 29.58 in /  1001.6 hPa SSW 16.0 mph /  25.7 km/h 24.0 mph /  38.6 km/h 89 % 0.00 in /  0 mm 0 W/m2
04:39 53.6 °F /  12 °C 50.4 °F /  10.2 °C 29.58 in /  1001.6 hPa SSW 14.0 mph /  22.5 km/h 20.0 mph /  32.2 km/h 89 % 0.00 in /  0 mm 0 W/m2
04:44 53.4 °F /  11.9 °C 50.3 °F /  10.2 °C 29.57 in /  1001.2 hPa SSW 16.0 mph /  25.7 km/h 26.0 mph /  41.8 km/h 89 % 0.00 in /  0 mm 0 W/m2
04:49 53.6 °F /  12 °C 50.4 °F /  10.2 °C 29.56 in /  1000.9 hPa SSW 15.0 mph /  24.1 km/h 23.0 mph /  37 km/h 89 % 0.00 in /  0 mm 0 W/m2
04:54 53.6 °F /  12 °C 50.7 °F /  10.4 °C 29.56 in /  1000.9 hPa SW 18.0 mph /  29 km/h 27.0 mph /  43.5 km/h 90 % 0.00 in /  0 mm 0 W/m2
04:59 53.4 °F /  11.9 °C 50.6 °F /  10.3 °C 29.56 in /  1000.9 hPa SSW 17.0 mph /  27.4 km/h 25.0 mph /  40.2 km/h 90 % 0.00 in /  0 mm 0 W/m2
05:04 53.6 °F /  12 °C 50.7 °F /  10.4 °C 29.55 in /  1000.6 hPa SSW 16.0 mph /  25.7 km/h 24.0 mph /  38.6 km/h 90 % 0.00 in /  0 mm 0 W/m2
05:09 53.6 °F /  12 °C 50.7 °F /  10.4 °C 29.55 in /  1000.6 hPa SW 16.0 mph /  25.7 km/h 25.0 mph /  40.2 km/h 90 % 0.00 in /  0 mm 0 W/m2
05:14 53.8 °F /  12.1 °C 50.9 °F /  10.5 °C 29.54 in /  1000.2 hPa SW 18.0 mph /  29 km/h 28.0 mph /  45.1 km/h 90 % 0.00 in /  0 mm 0 W/m2
05:19 54.0 °F /  12.2 °C 51.1 °F /  10.6 °C 29.54 in /  1000.2 hPa SW 17.0 mph /  27.4 km/h 26.0 mph /  41.8 km/h 90 % 0.00 in /  0 mm 0 W/m2
05:24 54.1 °F /  12.3 °C 51.0 °F /  10.6 °C 29.54 in /  1000.2 hPa SW 17.0 mph /  27.4 km/h 30.0 mph /  48.3 km/h 89 % 0.00 in /  0 mm 0 W/m2
05:29 54.3 °F /  12.4 °C 51.1 °F /  10.6 °C 29.54 in /  1000.2 hPa SW 16.0 mph /  25.7 km/h 29.0 mph /  46.7 km/h 89 % 0.00 in /  0 mm 0 W/m2
05:34 54.3 °F /  12.4 °C 50.8 °F /  10.4 °C 29.54 in /  1000.2 hPa SW 18.0 mph /  29 km/h 29.0 mph /  46.7 km/h 88 % 0.00 in /  0 mm 0 W/m2
05:39 54.5 °F /  12.5 °C 51.0 °F /  10.6 °C 29.54 in /  1000.2 hPa SSW 20.0 mph /  32.2 km/h 28.0 mph /  45.1 km/h 88 % 0.00 in /  0 mm 0 W/m2
05:44 54.3 °F /  12.4 °C 50.8 °F /  10.4 °C 29.54 in /  1000.2 hPa SW 16.0 mph /  25.7 km/h 26.0 mph /  41.8 km/h 88 % 0.00 in /  0 mm 0 W/m2
05:49 54.3 °F /  12.4 °C 51.1 °F /  10.6 °C 29.54 in /  1000.2 hPa SW 16.0 mph /  25.7 km/h 27.0 mph /  43.5 km/h 89 % 0.00 in /  0 mm 0 W/m2
05:54 54.1 °F /  12.3 °C 51.3 °F /  10.7 °C 29.54 in /  1000.2 hPa SSW 17.0 mph /  27.4 km/h 25.0 mph /  40.2 km/h 90 % 0.00 in /  0 mm 0 W/m2
05:59 54.1 °F /  12.3 °C 51.3 °F /  10.7 °C 29.53 in /  999.9 hPa SW 17.0 mph /  27.4 km/h 28.0 mph /  45.1 km/h 90 % 0.00 in /  0 mm 0 W/m2
06:04 54.1 °F /  12.3 °C 51.3 °F /  10.7 °C 29.53 in /  999.9 hPa SW 13.0 mph /  20.9 km/h 22.0 mph /  35.4 km/h 90 % 0.00 in /  0 mm 0 W/m2
06:09 54.0 °F /  12.2 °C 51.4 °F /  10.8 °C 29.53 in /  999.9 hPa SW 14.0 mph /  22.5 km/h 25.0 mph /  40.2 km/h 91 % 0.01 in /  0.25 mm 0 W/m2
06:14 54.0 °F /  12.2 °C 51.4 °F /  10.8 °C 29.53 in /  999.9 hPa SSW 16.0 mph /  25.7 km/h 24.0 mph /  38.6 km/h 91 % 0.01 in /  0.25 mm 0 W/m2
06:19 54.0 °F /  12.2 °C 51.4 °F /  10.8 °C 29.52 in /  999.5 hPa SW 18.0 mph /  29 km/h 26.0 mph /  41.8 km/h 91 % 0.01 in /  0.25 mm 0 W/m2
06:24 54.0 °F /  12.2 °C 51.4 °F /  10.8 °C 29.52 in /  999.5 hPa SW 15.0 mph /  24.1 km/h 23.0 mph /  37 km/h 91 % 0.01 in /  0.25 mm 0 W/m2
06:29 54.0 °F /  12.2 °C 51.4 °F /  10.8 °C 29.51 in /  999.2 hPa SW 16.0 mph /  25.7 km/h 26.0 mph /  41.8 km/h 91 % 0.01 in /  0.25 mm 0 W/m2
06:32 54.0 °F /  12.2 °C 51.4 °F /  10.8 °C 29.52 in /  999.5 hPa SW 16.0 mph /  25.7 km/h 26.0 mph /  41.8 km/h 91 % 0.01 in /  0.25 mm 0 W/m2
06:37 54.0 °F /  12.2 °C 51.4 °F /  10.8 °C 29.51 in /  999.2 hPa SW 17.0 mph /  27.4 km/h 23.0 mph /  37 km/h 91 % 0.02 in /  0.51 mm 0 W/m2
06:42 54.1 °F /  12.3 °C 51.6 °F /  10.9 °C 29.51 in /  999.2 hPa SW 18.0 mph /  29 km/h 27.0 mph /  43.5 km/h 91 % 0.02 in /  0.51 mm 0 W/m2
06:47 54.0 °F /  12.2 °C 51.4 °F /  10.8 °C 29.51 in /  999.2 hPa SW 11.0 mph /  17.7 km/h 19.0 mph /  30.6 km/h 91 % 0.02 in /  0.51 mm 0 W/m2
06:52 54.0 °F /  12.2 °C 51.4 °F /  10.8 °C 29.51 in /  999.2 hPa SW 15.0 mph /  24.1 km/h 23.0 mph /  37 km/h 91 % 0.02 in /  0.51 mm 0 W/m2
06:57 54.0 °F /  12.2 °C 51.4 °F /  10.8 °C 29.50 in /  998.9 hPa SW 12.0 mph /  19.3 km/h 21.0 mph /  33.8 km/h 91 % 0.02 in /  0.51 mm 0 W/m2
07:02 54.0 °F /  12.2 °C 51.4 °F /  10.8 °C 29.50 in /  998.9 hPa SW 11.0 mph /  17.7 km/h 20.0 mph /  32.2 km/h 91 % 0.02 in /  0.51 mm 0 W/m2
07:07 54.0 °F /  12.2 °C 51.7 °F /  10.9 °C 29.50 in /  998.9 hPa SW 11.0 mph /  17.7 km/h 18.0 mph /  29 km/h 92 % 0.02 in /  0.51 mm 0 W/m2
07:12 54.0 °F /  12.2 °C 51.4 °F /  10.8 °C 29.50 in /  998.9 hPa SW 11.0 mph /  17.7 km/h 19.0 mph /  30.6 km/h 91 % 0.02 in /  0.51 mm 0 W/m2
07:17 54.1 °F /  12.3 °C 51.6 °F /  10.9 °C 29.50 in /  998.9 hPa SW 11.0 mph /  17.7 km/h 20.0 mph /  32.2 km/h 91 % 0.02 in /  0.51 mm 0 W/m2
07:22 54.1 °F /  12.3 °C 51.9 °F /  11.1 °C 29.50 in /  998.9 hPa SW 12.0 mph /  19.3 km/h 20.0 mph /  32.2 km/h 92 % 0.02 in /  0.51 mm 0 W/m2
07:27 54.1 °F /  12.3 °C 51.9 °F /  11.1 °C 29.50 in /  998.9 hPa SW 12.0 mph /  19.3 km/h 18.0 mph /  29 km/h 92 % 0.02 in /  0.51 mm 0 W/m2
07:32 54.3 °F /  12.4 °C 52.0 °F /  11.1 °C 29.50 in /  998.9 hPa SW 14.0 mph /  22.5 km/h 24.0 mph /  38.6 km/h 92 % 0.02 in /  0.51 mm 0 W/m2
07:37 54.3 °F /  12.4 °C 52.0 °F /  11.1 °C 29.50 in /  998.9 hPa SW 11.0 mph /  17.7 km/h 18.0 mph /  29 km/h 92 % 0.01 in /  0.25 mm 0 W/m2
07:42 54.3 °F /  12.4 °C 52.0 °F /  11.1 °C 29.51 in /  999.2 hPa SW 12.0 mph /  19.3 km/h 19.0 mph /  30.6 km/h 92 % 0.01 in /  0.25 mm 0 W/m2
07:47 54.1 °F /  12.3 °C 51.9 °F /  11.1 °C 29.53 in /  999.9 hPa WNW 14.0 mph /  22.5 km/h 30.0 mph /  48.3 km/h 92 % 0.01 in /  0.25 mm 0 W/m2
07:49 52.9 °F /  11.6 °C 49.4 °F /  9.7 °C 29.54 in /  1000.2 hPa WNW 17.0 mph /  27.4 km/h 29.0 mph /  46.7 km/h 88 % 0.01 in /  0.25 mm 0 W/m2
07:54 50.9 °F /  10.5 °C 47.5 °F /  8.6 °C 29.54 in /  1000.2 hPa WNW 13.0 mph /  20.9 km/h 22.0 mph /  35.4 km/h 88 % 0.02 in /  0.51 mm 0 W/m2
07:59 49.5 °F /  9.7 °C 46.4 °F /  8 °C 29.55 in /  1000.6 hPa WNW 14.0 mph /  22.5 km/h 23.0 mph /  37 km/h 89 % 0.02 in /  0.51 mm 0 W/m2
08:04 48.6 °F /  9.2 °C 45.8 °F /  7.7 °C 29.55 in /  1000.6 hPa WNW 15.0 mph /  24.1 km/h 22.0 mph /  35.4 km/h 90 % 0.02 in /  0.51 mm 0 W/m2
08:09 48.0 °F /  8.9 °C 45.5 °F /  7.5 °C 29.56 in /  1000.9 hPa West 11.0 mph /  17.7 km/h 16.0 mph /  25.7 km/h 91 % 0.02 in /  0.51 mm 0 W/m2
08:14 47.5 °F /  8.6 °C 44.7 °F /  7.1 °C 29.56 in /  1000.9 hPa West 13.0 mph /  20.9 km/h 19.0 mph /  30.6 km/h 90 % 0.02 in /  0.51 mm 0 W/m2
08:19 47.1 °F /  8.4 °C 44.0 °F /  6.7 °C 29.57 in /  1001.2 hPa West 15.0 mph /  24.1 km/h 22.0 mph /  35.4 km/h 89 % 0.02 in /  0.51 mm 5 W/m2
08:24 47.1 °F /  8.4 °C 44.0 °F /  6.7 °C 29.57 in /  1001.2 hPa WNW 13.0 mph /  20.9 km/h 21.0 mph /  33.8 km/h 89 % 0.02 in /  0.51 mm 9 W/m2
08:30 46.9 °F /  8.3 °C 43.6 °F /  6.4 °C 29.57 in /  1001.2 hPa West 11.0 mph /  17.7 km/h 24.0 mph /  38.6 km/h 88 % 0.02 in /  0.51 mm 11 W/m2
08:35 46.8 °F /  8.2 °C 42.8 °F /  6 °C 29.57 in /  1001.2 hPa West 17.0 mph /  27.4 km/h 30.0 mph /  48.3 km/h 86 % 0.02 in /  0.51 mm 14 W/m2
08:40 46.6 °F /  8.1 °C 42.3 °F /  5.7 °C 29.57 in /  1001.2 hPa West 13.0 mph /  20.9 km/h 20.0 mph /  32.2 km/h 85 % 0.02 in /  0.51 mm 16 W/m2
08:45 46.6 °F /  8.1 °C 42.3 °F /  5.7 °C 29.58 in /  1001.6 hPa West 14.0 mph /  22.5 km/h 22.0 mph /  35.4 km/h 85 % 0.02 in /  0.51 mm 16 W/m2
08:50 46.6 °F /  8.1 °C 42.0 °F /  5.6 °C 29.58 in /  1001.6 hPa West 15.0 mph /  24.1 km/h 25.0 mph /  40.2 km/h 84 % 0.02 in /  0.51 mm 18 W/m2
08:55 46.6 °F /  8.1 °C 42.0 °F /  5.6 °C 29.58 in /  1001.6 hPa West 16.0 mph /  25.7 km/h 27.0 mph /  43.5 km/h 84 % 0.00 in /  0 mm 19 W/m2
09:00 46.4 °F /  8 °C 41.8 °F /  5.4 °C 29.59 in /  1001.9 hPa West 15.0 mph /  24.1 km/h 26.0 mph /  41.8 km/h 84 % 0.00 in /  0 mm 19 W/m2
09:05 46.4 °F /  8 °C 41.8 °F /  5.4 °C 29.59 in /  1001.9 hPa West 18.0 mph /  29 km/h 27.0 mph /  43.5 km/h 84 % 0.00 in /  0 mm 26 W/m2
09:10 46.4 °F /  8 °C 41.5 °F /  5.3 °C 29.59 in /  1001.9 hPa West 18.0 mph /  29 km/h 29.0 mph /  46.7 km/h 83 % 0.00 in /  0 mm 32 W/m2
09:15 46.2 °F /  7.9 °C 41.0 °F /  5 °C 29.59 in /  1001.9 hPa WNW 18.0 mph /  29 km/h 29.0 mph /  46.7 km/h 82 % 0.00 in /  0 mm 39 W/m2
09:20 46.2 °F /  7.9 °C 40.7 °F /  4.8 °C 29.59 in /  1001.9 hPa West 14.0 mph /  22.5 km/h 22.0 mph /  35.4 km/h 81 % 0.00 in /  0 mm 42 W/m2
09:25 46.0 °F /  7.8 °C 40.5 °F /  4.7 °C 29.59 in /  1001.9 hPa West 13.0 mph /  20.9 km/h 23.0 mph /  37 km/h 81 % 0.00 in /  0 mm 40 W/m2
09:30 46.0 °F /  7.8 °C 40.5 °F /  4.7 °C 29.60 in /  1002.3 hPa West 18.0 mph /  29 km/h 28.0 mph /  45.1 km/h 81 % 0.00 in /  0 mm 37 W/m2
09:35 45.9 °F /  7.7 °C 40.0 °F /  4.4 °C 29.60 in /  1002.3 hPa West 18.0 mph /  29 km/h 28.0 mph /  45.1 km/h 80 % 0.00 in /  0 mm 35 W/m2
09:40 45.9 °F /  7.7 °C 40.0 °F /  4.4 °C 29.60 in /  1002.3 hPa West 19.0 mph /  30.6 km/h 30.0 mph /  48.3 km/h 80 % 0.00 in /  0 mm 37 W/m2
09:45 45.7 °F /  7.6 °C 39.9 °F /  4.4 °C 29.60 in /  1002.3 hPa West 16.0 mph /  25.7 km/h 24.0 mph /  38.6 km/h 80 % 0.00 in /  0 mm 39 W/m2
09:50 45.5 °F /  7.5 °C 39.7 °F /  4.3 °C 29.61 in /  1002.6 hPa West 16.0 mph /  25.7 km/h 26.0 mph /  41.8 km/h 80 % 0.00 in /  0 mm 54 W/m2
09:55 45.3 °F /  7.4 °C 39.5 °F /  4.2 °C 29.61 in /  1002.6 hPa West 15.0 mph /  24.1 km/h 24.0 mph /  38.6 km/h 80 % 0.00 in /  0 mm 121 W/m2
10:00 45.3 °F /  7.4 °C 39.2 °F /  4 °C 29.62 in /  1002.9 hPa West 20.0 mph /  32.2 km/h 30.0 mph /  48.3 km/h 79 % 0.00 in /  0 mm 128 W/m2
10:05 45.7 °F /  7.6 °C 39.5 °F /  4.2 °C 29.62 in /  1002.9 hPa WNW 22.0 mph /  35.4 km/h 33.0 mph /  53.1 km/h 79 % 0.00 in /  0 mm 188 W/m2
10:10 45.9 °F /  7.7 °C 39.7 °F /  4.3 °C 29.62 in /  1002.9 hPa WNW 17.0 mph /  27.4 km/h 25.0 mph /  40.2 km/h 79 % 0.00 in /  0 mm 199 W/m2
10:15 46.0 °F /  7.8 °C 39.6 °F /  4.2 °C 29.62 in /  1002.9 hPa WNW 15.0 mph /  24.1 km/h 27.0 mph /  43.5 km/h 78 % 0.00 in /  0 mm 204 W/m2
10:20 46.2 °F /  7.9 °C 39.7 °F /  4.3 °C 29.63 in /  1003.3 hPa WNW 19.0 mph /  30.6 km/h 29.0 mph /  46.7 km/h 78 % 0.00 in /  0 mm 214 W/m2
10:25 46.2 °F /  7.9 °C 39.4 °F /  4.1 °C 29.63 in /  1003.3 hPa WNW 19.0 mph /  30.6 km/h 29.0 mph /  46.7 km/h 77 % 0.00 in /  0 mm 185 W/m2
10:30 46.2 °F /  7.9 °C 39.7 °F /  4.3 °C 29.63 in /  1003.3 hPa WNW 18.0 mph /  29 km/h 28.0 mph /  45.1 km/h 78 % 0.00 in /  0 mm 165 W/m2
10:35 46.2 °F /  7.9 °C 39.4 °F /  4.1 °C 29.63 in /  1003.3 hPa WNW 20.0 mph /  32.2 km/h 30.0 mph /  48.3 km/h 77 % 0.00 in /  0 mm 171 W/m2
10:36 46.2 °F /  7.9 °C 39.4 °F /  4.1 °C 29.63 in /  1003.3 hPa WNW 19.0 mph /  30.6 km/h 28.0 mph /  45.1 km/h 77 % 0.00 in /  0 mm 163 W/m2
10:41 46.2 °F /  7.9 °C 39.4 °F /  4.1 °C 29.63 in /  1003.3 hPa WNW 19.0 mph /  30.6 km/h 29.0 mph /  46.7 km/h 77 % 0.00 in /  0 mm 202 W/m2
10:46 46.4 °F /  8 °C 39.2 °F /  4 °C 29.64 in /  1003.6 hPa WNW 18.0 mph /  29 km/h 28.0 mph /  45.1 km/h 76 % 0.00 in /  0 mm 186 W/m2
10:51 46.4 °F /  8 °C 39.2 °F /  4 °C 29.63 in /  1003.3 hPa WNW 19.0 mph /  30.6 km/h 32.0 mph /  51.5 km/h 76 % 0.00 in /  0 mm 155 W/m2
10:56 46.4 °F /  8 °C 39.2 °F /  4 °C 29.64 in /  1003.6 hPa WNW 18.0 mph /  29 km/h 26.0 mph /  41.8 km/h 76 % 0.00 in /  0 mm 135 W/m2
11:01 46.4 °F /  8 °C 38.9 °F /  3.8 °C 29.64 in /  1003.6 hPa WNW 16.0 mph /  25.7 km/h 30.0 mph /  48.3 km/h 75 % 0.00 in /  0 mm 149 W/m2
11:07 46.6 °F /  8.1 °C 39.4 °F /  4.1 °C 29.64 in /  1003.6 hPa WNW 17.0 mph /  27.4 km/h 24.0 mph /  38.6 km/h 76 % 0.00 in /  0 mm 135 W/m2
11:12 46.6 °F /  8.1 °C 39.1 °F /  3.9 °C 29.64 in /  1003.6 hPa WNW 14.0 mph /  22.5 km/h 25.0 mph /  40.2 km/h 75 % 0.00 in /  0 mm 171 W/m2
11:17 46.8 °F /  8.2 °C 39.6 °F /  4.2 °C 29.65 in /  1003.9 hPa WNW 11.0 mph /  17.7 km/h 25.0 mph /  40.2 km/h 76 % 0.00 in /  0 mm 156 W/m2
11:22 46.8 °F /  8.2 °C 39.3 °F /  4.1 °C 29.65 in /  1003.9 hPa WNW 14.0 mph /  22.5 km/h 24.0 mph /  38.6 km/h 75 % 0.00 in /  0 mm 142 W/m2
11:27 46.9 °F /  8.3 °C 39.4 °F /  4.1 °C 29.64 in /  1003.6 hPa WNW 15.0 mph /  24.1 km/h 27.0 mph /  43.5 km/h 75 % 0.00 in /  0 mm 97 W/m2
11:32 46.9 °F /  8.3 °C 39.4 °F /  4.1 °C 29.64 in /  1003.6 hPa WNW 14.0 mph /  22.5 km/h 25.0 mph /  40.2 km/h 75 % 0.00 in /  0 mm 72 W/m2
11:37 46.8 °F /  8.2 °C 39.3 °F /  4.1 °C 29.64 in /  1003.6 hPa WNW 13.0 mph /  20.9 km/h 29.0 mph /  46.7 km/h 75 % 0.00 in /  0 mm 81 W/m2
11:42 46.8 °F /  8.2 °C 39.3 °F /  4.1 °C 29.64 in /  1003.6 hPa WNW 17.0 mph /  27.4 km/h 32.0 mph /  51.5 km/h 75 % 0.00 in /  0 mm 84 W/m2
11:47 46.8 °F /  8.2 °C 39.3 °F /  4.1 °C 29.64 in /  1003.6 hPa WNW 16.0 mph /  25.7 km/h 25.0 mph /  40.2 km/h 75 % 0.00 in /  0 mm 83 W/m2
11:52 46.8 °F /  8.2 °C 39.3 °F /  4.1 °C 29.64 in /  1003.6 hPa WNW 20.0 mph /  32.2 km/h 31.0 mph /  49.9 km/h 75 % 0.00 in /  0 mm 107 W/m2
11:57 46.8 °F /  8.2 °C 39.3 °F /  4.1 °C 29.64 in /  1003.6 hPa WNW 16.0 mph /  25.7 km/h 27.0 mph /  43.5 km/h 75 % 0.00 in /  0 mm 116 W/m2
12:02 46.8 °F /  8.2 °C 39.3 °F /  4.1 °C 29.64 in /  1003.6 hPa WNW 13.0 mph /  20.9 km/h 26.0 mph /  41.8 km/h 75 % 0.00 in /  0 mm 102 W/m2
12:07 46.8 °F /  8.2 °C 39.3 °F /  4.1 °C 29.64 in /  1003.6 hPa WNW 16.0 mph /  25.7 km/h 23.0 mph /  37 km/h 75 % 0.00 in /  0 mm 98 W/m2
12:12 46.8 °F /  8.2 °C 39.3 °F /  4.1 °C 29.64 in /  1003.6 hPa WNW 10.0 mph /  16.1 km/h 14.0 mph /  22.5 km/h 75 % 0.00 in /  0 mm 162 W/m2
12:17 46.8 °F /  8.2 °C 38.6 °F /  3.7 °C 29.64 in /  1003.6 hPa WNW 18.0 mph /  29 km/h 34.0 mph /  54.7 km/h 73 % 0.00 in /  0 mm 156 W/m2
12:22 46.8 °F /  8.2 °C 38.6 °F /  3.7 °C 29.64 in /  1003.6 hPa WNW 19.0 mph /  30.6 km/h 27.0 mph /  43.5 km/h 73 % 0.00 in /  0 mm 155 W/m2
12:27 46.9 °F /  8.3 °C 38.7 °F /  3.7 °C 29.64 in /  1003.6 hPa West 19.0 mph /  30.6 km/h 31.0 mph /  49.9 km/h 73 % 0.00 in /  0 mm 156 W/m2
12:32 46.8 °F /  8.2 °C 38.6 °F /  3.7 °C 29.64 in /  1003.6 hPa WNW 21.0 mph /  33.8 km/h 30.0 mph /  48.3 km/h 73 % 0.00 in /  0 mm 162 W/m2
12:52 46.8 °F /  8.2 °C 38.6 °F /  3.7 °C 29.64 in /  1003.6 hPa WNW 20.0 mph /  32.2 km/h 31.0 mph /  49.9 km/h 73 % 0.00 in /  0 mm 121 W/m2
12:57 46.8 °F /  8.2 °C 38.6 °F /  3.7 °C 29.64 in /  1003.6 hPa WNW 19.0 mph /  30.6 km/h 31.0 mph /  49.9 km/h 73 % 0.00 in /  0 mm 113 W/m2
13:07 46.6 °F /  8.1 °C 38.4 °F /  3.6 °C 29.65 in /  1003.9 hPa West 14.0 mph /  22.5 km/h 30.0 mph /  48.3 km/h 73 % 0.00 in /  0 mm 81 W/m2
13:12 46.6 °F /  8.1 °C 38.4 °F /  3.6 °C 29.65 in /  1003.9 hPa WNW 16.0 mph /  25.7 km/h 26.0 mph /  41.8 km/h 73 % 0.00 in /  0 mm 77 W/m2
13:17 46.4 °F /  8 °C 38.2 °F /  3.4 °C 29.66 in /  1004.3 hPa West 20.0 mph /  32.2 km/h 31.0 mph /  49.9 km/h 73 % 0.00 in /  0 mm 77 W/m2
13:32 46.0 °F /  7.8 °C 37.5 °F /  3.1 °C 29.66 in /  1004.3 hPa WNW 20.0 mph /  32.2 km/h 27.0 mph /  43.5 km/h 72 % 0.00 in /  0 mm 81 W/m2
13:37 46.0 °F /  7.8 °C 37.5 °F /  3.1 °C 29.66 in /  1004.3 hPa WNW 19.0 mph /  30.6 km/h 29.0 mph /  46.7 km/h 72 % 0.00 in /  0 mm 81 W/m2
13:42 45.9 °F /  7.7 °C 37.3 °F /  2.9 °C 29.67 in /  1004.6 hPa WNW 17.0 mph /  27.4 km/h 26.0 mph /  41.8 km/h 72 % 0.00 in /  0 mm 77 W/m2
13:52 45.9 °F /  7.7 °C 37.3 °F /  2.9 °C 29.67 in /  1004.6 hPa WNW 17.0 mph /  27.4 km/h 24.0 mph /  38.6 km/h 72 % 0.00 in /  0 mm 54 W/m2
13:57 45.9 °F /  7.7 °C 37.3 °F /  2.9 °C 29.67 in /  1004.6 hPa WNW 18.0 mph /  29 km/h 26.0 mph /  41.8 km/h 72 % 0.00 in /  0 mm 60 W/m2
14:02 45.7 °F /  7.6 °C 37.2 °F /  2.9 °C 29.67 in /  1004.6 hPa West 19.0 mph /  30.6 km/h 28.0 mph /  45.1 km/h 72 % 0.00 in /  0 mm 109 W/m2
14:07 45.7 °F /  7.6 °C 37.2 °F /  2.9 °C 29.67 in /  1004.6 hPa WNW 19.0 mph /  30.6 km/h 26.0 mph /  41.8 km/h 72 % 0.00 in /  0 mm 153 W/m2
14:12 45.9 °F /  7.7 °C 37.3 °F /  2.9 °C 29.67 in /  1004.6 hPa WNW 15.0 mph /  24.1 km/h 26.0 mph /  41.8 km/h 72 % 0.00 in /  0 mm 62 W/m2
14:17 45.7 °F /  7.6 °C 37.2 °F /  2.9 °C 29.68 in /  1005 hPa WNW 15.0 mph /  24.1 km/h 29.0 mph /  46.7 km/h 72 % 0.00 in /  0 mm 56 W/m2
14:22 45.7 °F /  7.6 °C 37.2 °F /  2.9 °C 29.68 in /  1005 hPa WNW 15.0 mph /  24.1 km/h 21.0 mph /  33.8 km/h 72 % 0.00 in /  0 mm 47 W/m2
14:27 45.7 °F /  7.6 °C 37.5 °F /  3.1 °C 29.68 in /  1005 hPa WNW 12.0 mph /  19.3 km/h 20.0 mph /  32.2 km/h 73 % 0.00 in /  0 mm 100 W/m2
14:32 45.7 °F /  7.6 °C 37.5 °F /  3.1 °C 29.67 in /  1004.6 hPa West 11.0 mph /  17.7 km/h 18.0 mph /  29 km/h 73 % 0.00 in /  0 mm 88 W/m2
14:37 45.7 °F /  7.6 °C 37.2 °F /  2.9 °C 29.67 in /  1004.6 hPa West 16.0 mph /  25.7 km/h 26.0 mph /  41.8 km/h 72 % 0.00 in /  0 mm 32 W/m2
14:41 45.5 °F /  7.5 °C 37.0 °F /  2.8 °C 29.67 in /  1004.6 hPa West 13.0 mph /  20.9 km/h 21.0 mph /  33.8 km/h 72 % 0.00 in /  0 mm 26 W/m2
14:51 45.1 °F /  7.3 °C 36.6 °F /  2.6 °C 29.68 in /  1005 hPa WNW 13.0 mph /  20.9 km/h 21.0 mph /  33.8 km/h 72 % 0.00 in /  0 mm 18 W/m2
15:01 45.0 °F /  7.2 °C 36.8 °F /  2.7 °C 29.69 in /  1005.3 hPa WNW 12.0 mph /  19.3 km/h 22.0 mph /  35.4 km/h 73 % 0.00 in /  0 mm 7 W/m2
15:11 43.3 °F /  6.3 °C 37.6 °F /  3.1 °C 29.68 in /  1005 hPa WNW 9.0 mph /  14.5 km/h 15.0 mph /  24.1 km/h 80 % 0.01 in /  0.25 mm 16 W/m2
15:31 42.4 °F /  5.8 °C 37.6 °F /  3.1 °C 29.68 in /  1005 hPa WNW 10.0 mph /  16.1 km/h 18.0 mph /  29 km/h 83 % 0.01 in /  0.25 mm 7 W/m2
15:36 42.4 °F /  5.8 °C 37.6 °F /  3.1 °C 29.69 in /  1005.3 hPa West 10.0 mph /  16.1 km/h 18.0 mph /  29 km/h 83 % 0.01 in /  0.25 mm 7 W/m2
15:42 42.3 °F /  5.7 °C 36.8 °F /  2.7 °C 29.69 in /  1005.3 hPa West 16.0 mph /  25.7 km/h 27.0 mph /  43.5 km/h 81 % 0.01 in /  0.25 mm 5 W/m2
15:47 42.4 °F /  5.8 °C 36.7 °F /  2.6 °C 29.69 in /  1005.3 hPa West 14.0 mph /  22.5 km/h 21.0 mph /  33.8 km/h 80 % 0.01 in /  0.25 mm 0 W/m2
15:52 42.4 °F /  5.8 °C 36.4 °F /  2.4 °C 29.69 in /  1005.3 hPa West 17.0 mph /  27.4 km/h 27.0 mph /  43.5 km/h 79 % 0.01 in /  0.25 mm 0 W/m2
15:57 42.3 °F /  5.7 °C 35.9 °F /  2.2 °C 29.69 in /  1005.3 hPa WNW 15.0 mph /  24.1 km/h 22.0 mph /  35.4 km/h 78 % 0.01 in /  0.25 mm 0 W/m2
16:02 42.3 °F /  5.7 °C 35.9 °F /  2.2 °C 29.69 in /  1005.3 hPa West 15.0 mph /  24.1 km/h 26.0 mph /  41.8 km/h 78 % 0.01 in /  0.25 mm 0 W/m2
16:07 42.1 °F /  5.6 °C 35.7 °F /  2.1 °C 29.69 in /  1005.3 hPa WNW 13.0 mph /  20.9 km/h 25.0 mph /  40.2 km/h 78 % 0.00 in /  0 mm 0 W/m2
16:12 41.9 °F /  5.5 °C 35.5 °F /  1.9 °C 29.69 in /  1005.3 hPa WNW 13.0 mph /  20.9 km/h 20.0 mph /  32.2 km/h 78 % 0.00 in /  0 mm 0 W/m2
16:17 41.9 °F /  5.5 °C 35.5 °F /  1.9 °C 29.69 in /  1005.3 hPa West 14.0 mph /  22.5 km/h 21.0 mph /  33.8 km/h 78 % 0.00 in /  0 mm 0 W/m2
16:22 41.7 °F /  5.4 °C 35.4 °F /  1.9 °C 29.70 in /  1005.6 hPa West 14.0 mph /  22.5 km/h 24.0 mph /  38.6 km/h 78 % 0.00 in /  0 mm 0 W/m2
16:27 41.7 °F /  5.4 °C 35.4 °F /  1.9 °C 29.70 in /  1005.6 hPa West 11.0 mph /  17.7 km/h 16.0 mph /  25.7 km/h 78 % 0.00 in /  0 mm 0 W/m2
16:32 41.5 °F /  5.3 °C 35.5 °F /  1.9 °C 29.70 in /  1005.6 hPa West 14.0 mph /  22.5 km/h 19.0 mph /  30.6 km/h 79 % 0.00 in /  0 mm 0 W/m2
16:37 41.5 °F /  5.3 °C 35.5 °F /  1.9 °C 29.70 in /  1005.6 hPa WNW 13.0 mph /  20.9 km/h 20.0 mph /  32.2 km/h 79 % 0.00 in /  0 mm 0 W/m2
16:53 41.7 °F /  5.4 °C 36.3 °F /  2.4 °C 29.70 in /  1005.6 hPa WNW 7.0 mph /  11.3 km/h 11.0 mph /  17.7 km/h 81 % 0.00 in /  0 mm 0 W/m2
16:58 41.5 °F /  5.3 °C 36.5 °F /  2.5 °C 29.71 in /  1006 hPa NW 9.0 mph /  14.5 km/h 14.0 mph /  22.5 km/h 82 % 0.00 in /  0 mm 0 W/m2
17:03 41.5 °F /  5.3 °C 36.8 °F /  2.7 °C 29.71 in /  1006 hPa NW 9.0 mph /  14.5 km/h 14.0 mph /  22.5 km/h 83 % 0.00 in /  0 mm 0 W/m2
17:09 41.4 °F /  5.2 °C 37.2 °F /  2.9 °C 29.71 in /  1006 hPa WNW 8.0 mph /  12.9 km/h 12.0 mph /  19.3 km/h 85 % 0.00 in /  0 mm 0 W/m2
17:14 41.2 °F /  5.1 °C 37.0 °F /  2.8 °C 29.72 in /  1006.3 hPa WNW 8.0 mph /  12.9 km/h 11.0 mph /  17.7 km/h 85 % 0.00 in /  0 mm 0 W/m2
17:19 40.8 °F /  4.9 °C 37.0 °F /  2.8 °C 29.72 in /  1006.3 hPa NW 9.0 mph /  14.5 km/h 14.0 mph /  22.5 km/h 86 % 0.00 in /  0 mm 0 W/m2
17:29 39.9 °F /  4.4 °C 35.8 °F /  2.1 °C 29.73 in /  1006.7 hPa NW 13.0 mph /  20.9 km/h 22.0 mph /  35.4 km/h 85 % 0.02 in /  0.51 mm 0 W/m2
17:34 39.0 °F /  3.9 °C 35.5 °F /  1.9 °C 29.72 in /  1006.3 hPa WNW 10.0 mph /  16.1 km/h 16.0 mph /  25.7 km/h 87 % 0.02 in /  0.51 mm 0 W/m2
17:39 38.8 °F /  3.8 °C 35.6 °F /  2 °C 29.72 in /  1006.3 hPa WNW 10.0 mph /  16.1 km/h 15.0 mph /  24.1 km/h 88 % 0.02 in /  0.51 mm 0 W/m2
17:44 38.7 °F /  3.7 °C 35.7 °F /  2.1 °C 29.73 in /  1006.7 hPa WNW 11.0 mph /  17.7 km/h 18.0 mph /  29 km/h 89 % 0.02 in /  0.51 mm 0 W/m2
17:49 38.7 °F /  3.7 °C 36.0 °F /  2.2 °C 29.73 in /  1006.7 hPa WNW 12.0 mph /  19.3 km/h 18.0 mph /  29 km/h 90 % 0.02 in /  0.51 mm 0 W/m2
17:54 38.7 °F /  3.7 °C 36.0 °F /  2.2 °C 29.72 in /  1006.3 hPa WNW 11.0 mph /  17.7 km/h 18.0 mph /  29 km/h 90 % 0.02 in /  0.51 mm 0 W/m2
17:59 38.7 °F /  3.7 °C 36.0 °F /  2.2 °C 29.72 in /  1006.3 hPa West 10.0 mph /  16.1 km/h 16.0 mph /  25.7 km/h 90 % 0.02 in /  0.51 mm 0 W/m2
18:00 38.8 °F /  3.8 °C 36.2 °F /  2.3 °C 29.72 in /  1006.3 hPa West 10.0 mph /  16.1 km/h 16.0 mph /  25.7 km/h 90 % 0.02 in /  0.51 mm 0 W/m2
18:05 38.8 °F /  3.8 °C 36.2 °F /  2.3 °C 29.73 in /  1006.7 hPa West 12.0 mph /  19.3 km/h 19.0 mph /  30.6 km/h 90 % 0.02 in /  0.51 mm 0 W/m2
18:10 39.0 °F /  3.9 °C 36.6 °F /  2.6 °C 29.73 in /  1006.7 hPa WNW 13.0 mph /  20.9 km/h 25.0 mph /  40.2 km/h 91 % 0.02 in /  0.51 mm 0 W/m2
18:15 39.0 °F /  3.9 °C 36.3 °F /  2.4 °C 29.73 in /  1006.7 hPa WNW 18.0 mph /  29 km/h 28.0 mph /  45.1 km/h 90 % 0.03 in /  0.76 mm 0 W/m2
18:20 39.0 °F /  3.9 °C 36.1 °F /  2.3 °C 29.73 in /  1006.7 hPa WNW 17.0 mph /  27.4 km/h 26.0 mph /  41.8 km/h 89 % 0.03 in /  0.76 mm 0 W/m2
18:30 38.8 °F /  3.8 °C 36.2 °F /  2.3 °C 29.74 in /  1007 hPa WNW 15.0 mph /  24.1 km/h 27.0 mph /  43.5 km/h 90 % 0.02 in /  0.51 mm 0 W/m2
18:35 38.8 °F /  3.8 °C 36.2 °F /  2.3 °C 29.74 in /  1007 hPa West 14.0 mph /  22.5 km/h 21.0 mph /  33.8 km/h 90 % 0.01 in /  0.25 mm 0 W/m2
18:40 38.8 °F /  3.8 °C 36.2 °F /  2.3 °C 29.74 in /  1007 hPa West 11.0 mph /  17.7 km/h 16.0 mph /  25.7 km/h 90 % 0.01 in /  0.25 mm 0 W/m2
18:45 38.7 °F /  3.7 °C 36.0 °F /  2.2 °C 29.74 in /  1007 hPa WNW 15.0 mph /  24.1 km/h 27.0 mph /  43.5 km/h 90 % 0.01 in /  0.25 mm 0 W/m2
18:50 38.5 °F /  3.6 °C 35.5 °F /  1.9 °C 29.73 in /  1006.7 hPa WNW 19.0 mph /  30.6 km/h 31.0 mph /  49.9 km/h 89 % 0.01 in /  0.25 mm 0 W/m2
18:55 38.3 °F /  3.5 °C 35.3 °F /  1.8 °C 29.73 in /  1006.7 hPa West 14.0 mph /  22.5 km/h 26.0 mph /  41.8 km/h 89 % 0.01 in /  0.25 mm 0 W/m2
19:05 37.8 °F /  3.2 °C 34.8 °F /  1.6 °C 29.73 in /  1006.7 hPa West 12.0 mph /  19.3 km/h 20.0 mph /  32.2 km/h 89 % 0.02 in /  0.51 mm 0 W/m2
19:10 37.8 °F /  3.2 °C 35.1 °F /  1.7 °C 29.74 in /  1007 hPa West 12.0 mph /  19.3 km/h 19.0 mph /  30.6 km/h 90 % 0.02 in /  0.51 mm 0 W/m2
19:20 37.6 °F /  3.1 °C 34.9 °F /  1.6 °C 29.74 in /  1007 hPa West 10.0 mph /  16.1 km/h 18.0 mph /  29 km/h 90 % 0.01 in /  0.25 mm 0 W/m2
19:25 37.6 °F /  3.1 °C 34.9 °F /  1.6 °C 29.74 in /  1007 hPa West 12.0 mph /  19.3 km/h 19.0 mph /  30.6 km/h 90 % 0.01 in /  0.25 mm 0 W/m2
19:40 38.5 °F /  3.6 °C 35.2 °F /  1.8 °C 29.73 in /  1006.7 hPa West 14.0 mph /  22.5 km/h 26.0 mph /  41.8 km/h 88 % 0.01 in /  0.25 mm 0 W/m2
19:45 38.7 °F /  3.7 °C 35.1 °F /  1.7 °C 29.74 in /  1007 hPa West 14.0 mph /  22.5 km/h 20.0 mph /  32.2 km/h 87 % 0.01 in /  0.25 mm 0 W/m2
19:50 38.7 °F /  3.7 °C 34.5 °F /  1.4 °C 29.74 in /  1007 hPa West 13.0 mph /  20.9 km/h 20.0 mph /  32.2 km/h 85 % 0.01 in /  0.25 mm 0 W/m2
19:55 38.5 °F /  3.6 °C 34.1 °F /  1.2 °C 29.74 in /  1007 hPa WNW 14.0 mph /  22.5 km/h 30.0 mph /  48.3 km/h 84 % 0.01 in /  0.25 mm 0 W/m2
20:00 38.5 °F /  3.6 °C 33.8 °F /  1 °C 29.74 in /  1007 hPa WNW 15.0 mph /  24.1 km/h 23.0 mph /  37 km/h 83 % 0.00 in /  0 mm 0 W/m2
20:05 38.5 °F /  3.6 °C 33.5 °F /  0.8 °C 29.74 in /  1007 hPa West 14.0 mph /  22.5 km/h 22.0 mph /  35.4 km/h 82 % 0.00 in /  0 mm 0 W/m2
20:15 38.5 °F /  3.6 °C 33.2 °F /  0.7 °C 29.73 in /  1006.7 hPa West 16.0 mph /  25.7 km/h 23.0 mph /  37 km/h 81 % 0.00 in /  0 mm 0 W/m2
20:17 38.5 °F /  3.6 °C 32.8 °F /  0.4 °C 29.73 in /  1006.7 hPa WNW 13.0 mph /  20.9 km/h 20.0 mph /  32.2 km/h 80 % 0.00 in /  0 mm 0 W/m2
20:22 38.5 °F /  3.6 °C 32.5 °F /  0.3 °C 29.73 in /  1006.7 hPa West 17.0 mph /  27.4 km/h 28.0 mph /  45.1 km/h 79 % 0.00 in /  0 mm 0 W/m2
20:37 38.5 °F /  3.6 °C 31.6 °F /  -0.2 °C 29.73 in /  1006.7 hPa West 21.0 mph /  33.8 km/h 29.0 mph /  46.7 km/h 76 % 0.00 in /  0 mm 0 W/m2
20:42 38.5 °F /  3.6 °C 31.6 °F /  -0.2 °C 29.73 in /  1006.7 hPa WNW 18.0 mph /  29 km/h 27.0 mph /  43.5 km/h 76 % 0.00 in /  0 mm 0 W/m2
20:47 38.5 °F /  3.6 °C 31.2 °F /  -0.4 °C 29.73 in /  1006.7 hPa West 19.0 mph /  30.6 km/h 30.0 mph /  48.3 km/h 75 % 0.00 in /  0 mm 0 W/m2
20:57 38.7 °F /  3.7 °C 31.4 °F /  -0.3 °C 29.73 in /  1006.7 hPa West 18.0 mph /  29 km/h 27.0 mph /  43.5 km/h 75 % 0.00 in /  0 mm 0 W/m2
21:02 38.7 °F /  3.7 °C 31.4 °F /  -0.3 °C 29.74 in /  1007 hPa West 14.0 mph /  22.5 km/h 24.0 mph /  38.6 km/h 75 % 0.00 in /  0 mm 0 W/m2
21:07 38.5 °F /  3.6 °C 31.2 °F /  -0.4 °C 29.74 in /  1007 hPa West 15.0 mph /  24.1 km/h 25.0 mph /  40.2 km/h 75 % 0.00 in /  0 mm 0 W/m2
21:12 38.5 °F /  3.6 °C 31.2 °F /  -0.4 °C 29.74 in /  1007 hPa West 14.0 mph /  22.5 km/h 22.0 mph /  35.4 km/h 75 % 0.00 in /  0 mm 0 W/m2
21:17 38.5 °F /  3.6 °C 30.9 °F /  -0.6 °C 29.74 in /  1007 hPa West 13.0 mph /  20.9 km/h 22.0 mph /  35.4 km/h 74 % 0.00 in /  0 mm 0 W/m2
21:22 38.5 °F /  3.6 °C 30.9 °F /  -0.6 °C 29.74 in /  1007 hPa WNW 13.0 mph /  20.9 km/h 24.0 mph /  38.6 km/h 74 % 0.00 in /  0 mm 0 W/m2
21:27 38.5 °F /  3.6 °C 30.6 °F /  -0.8 °C 29.74 in /  1007 hPa WNW 13.0 mph /  20.9 km/h 23.0 mph /  37 km/h 73 % 0.00 in /  0 mm 0 W/m2
21:32 38.3 °F /  3.5 °C 30.4 °F /  -0.9 °C 29.75 in /  1007.3 hPa WNW 13.0 mph /  20.9 km/h 21.0 mph /  33.8 km/h 73 % 0.00 in /  0 mm 0 W/m2
21:37 38.3 °F /  3.5 °C 30.4 °F /  -0.9 °C 29.75 in /  1007.3 hPa WNW 14.0 mph /  22.5 km/h 23.0 mph /  37 km/h 73 % 0.00 in /  0 mm 0 W/m2
21:42 38.3 °F /  3.5 °C 30.4 °F /  -0.9 °C 29.75 in /  1007.3 hPa WNW 13.0 mph /  20.9 km/h 20.0 mph /  32.2 km/h 73 % 0.00 in /  0 mm 0 W/m2
21:47 38.1 °F /  3.4 °C 30.2 °F /  -1 °C 29.74 in /  1007 hPa West 9.0 mph /  14.5 km/h 13.0 mph /  20.9 km/h 73 % 0.00 in /  0 mm 0 W/m2
21:52 37.9 °F /  3.3 °C 30.1 °F /  -1.1 °C 29.74 in /  1007 hPa West 9.0 mph /  14.5 km/h 13.0 mph /  20.9 km/h 73 % 0.00 in /  0 mm 0 W/m2
21:57 37.9 °F /  3.3 °C 30.4 °F /  -0.9 °C 29.74 in /  1007 hPa WNW 9.0 mph /  14.5 km/h 19.0 mph /  30.6 km/h 74 % 0.00 in /  0 mm 0 W/m2
22:02 37.9 °F /  3.3 °C 30.1 °F /  -1.1 °C 29.74 in /  1007 hPa West 9.0 mph /  14.5 km/h 15.0 mph /  24.1 km/h 73 % 0.00 in /  0 mm 0 W/m2
22:07 37.9 °F /  3.3 °C 30.1 °F /  -1.1 °C 29.74 in /  1007 hPa West 10.0 mph /  16.1 km/h 20.0 mph /  32.2 km/h 73 % 0.00 in /  0 mm 0 W/m2
22:08 37.9 °F /  3.3 °C 30.1 °F /  -1.1 °C 29.74 in /  1007 hPa West 10.0 mph /  16.1 km/h 20.0 mph /  32.2 km/h 73 % 0.00 in /  0 mm 0 W/m2
22:13 37.9 °F /  3.3 °C 30.1 °F /  -1.1 °C 29.74 in /  1007 hPa West 9.0 mph /  14.5 km/h 13.0 mph /  20.9 km/h 73 % 0.00 in /  0 mm 0 W/m2
22:18 37.9 °F /  3.3 °C 30.1 °F /  -1.1 °C 29.73 in /  1006.7 hPa West 9.0 mph /  14.5 km/h 16.0 mph /  25.7 km/h 73 % 0.00 in /  0 mm 0 W/m2
22:28 37.6 °F /  3.1 °C 30.4 °F /  -0.9 °C 29.73 in /  1006.7 hPa West 10.0 mph /  16.1 km/h 15.0 mph /  24.1 km/h 75 % 0.00 in /  0 mm 0 W/m2
22:38 37.2 °F /  2.9 °C 30.7 °F /  -0.7 °C 29.74 in /  1007 hPa WNW 7.0 mph /  11.3 km/h 15.0 mph /  24.1 km/h 77 % 0.00 in /  0 mm 0 W/m2
22:55 37.4 °F /  3 °C 30.8 °F /  -0.7 °C 29.74 in /  1007 hPa West 9.0 mph /  14.5 km/h 16.0 mph /  25.7 km/h 77 % 0.00 in /  0 mm 0 W/m2
23:05 37.6 °F /  3.1 °C 31.0 °F /  -0.6 °C 29.74 in /  1007 hPa West 4.0 mph /  6.4 km/h 8.0 mph /  12.9 km/h 77 % 0.00 in /  0 mm 0 W/m2
23:10 37.8 °F /  3.2 °C 31.2 °F /  -0.4 °C 29.74 in /  1007 hPa West 3.0 mph /  4.8 km/h 6.0 mph /  9.7 km/h 77 % 0.00 in /  0 mm 0 W/m2
23:15 37.8 °F /  3.2 °C 31.2 °F /  -0.4 °C 29.74 in /  1007 hPa West 3.0 mph /  4.8 km/h 7.0 mph /  11.3 km/h 77 % 0.00 in /  0 mm 0 W/m2
23:25 37.8 °F /  3.2 °C 31.2 °F /  -0.4 °C 29.74 in /  1007 hPa West 9.0 mph /  14.5 km/h 13.0 mph /  20.9 km/h 77 % 0.00 in /  0 mm 0 W/m2
23:30 37.9 °F /  3.3 °C 32.0 °F /  0 °C 29.74 in /  1007 hPa West 10.0 mph /  16.1 km/h 15.0 mph /  24.1 km/h 79 % 0.00 in /  0 mm 0 W/m2
23:35 37.9 °F /  3.3 °C 32.0 °F /  0 °C 29.74 in /  1007 hPa West 12.0 mph /  19.3 km/h 20.0 mph /  32.2 km/h 79 % 0.00 in /  0 mm 0 W/m2
23:40 37.9 °F /  3.3 °C 32.6 °F /  0.3 °C 29.75 in /  1007.3 hPa WNW 14.0 mph /  22.5 km/h 23.0 mph /  37 km/h 81 % 0.00 in /  0 mm 0 W/m2
23:50 37.8 °F /  3.2 °C 33.4 °F /  0.8 °C 29.75 in /  1007.3 hPa WNW 9.0 mph /  14.5 km/h 15.0 mph /  24.1 km/h 84 % 0.00 in /  0 mm 0 W/m2
23:55 37.2 °F /  2.9 °C 33.1 °F /  0.6 °C 29.75 in /  1007.3 hPa NW 6.0 mph /  9.7 km/h 9.0 mph /  14.5 km/h 85 % 0.01 in /  0.25 mm 0 W/m2
Delerius-Weather
Compliments of Weather Underground - 2.25 mb

Data updates at regular intervals.